Time;durP1;ratioP1;P1;durP2;ratioP2;P2;SDS_P1;SDS_P2;PMS_P1;PMS_P2;Temp;Humidity;BMP_temperature;BMP_pressure;BME280_temperature;BME280_humidity;BME280_pressure;Samples;Min_cycle;Max_cycle;Signal;HPM_P1;HPM_P2
2022/03/27 00:02:51;;;;;;;;;;;;;;;-8.22;65.18;96054.03;6313095;28;19919;-63
2022/03/27 00:05:52;;;;;;;;;;;;;;;-8.33;65.30;96043.03;6315032;28;20411;-64
2022/03/27 00:08:54;;;;;;;;;;;;;;;-8.23;65.00;96039.59;6307659;28;19924;-64
2022/03/27 00:11:55;;;;;;;;;;;;;;;-8.36;65.32;96040.50;6305666;28;20318;-63
2022/03/27 00:14:55;;;;;;;;;;;;;;;-8.50;65.86;96045.69;6309319;28;19974;-64
2022/03/27 00:17:59;;;;;;;;;;;;;;;-8.50;66.02;96044.84;6314852;28;20432;-63
2022/03/27 00:21:05;;;;;;;;;;;;;;;-8.63;66.16;96036.41;6310510;28;20309;-64
2022/03/27 00:24:08;;;;;;;;;;;;;;;-8.46;65.94;96044.00;6312345;28;20045;-63
2022/03/27 00:27:10;;;;;;;;;;;;;;;-8.59;65.86;96046.59;6311174;28;20651;-63
2022/03/27 00:30:12;;;;;;;;;;;;;;;-8.81;66.12;96050.03;6314472;28;20602;-64
2022/03/27 00:33:16;;;;;;;;;;;;;;;-8.43;65.86;96046.53;6312222;28;19942;-63
2022/03/27 00:36:21;;;;;;;;;;;;;;;-8.48;66.18;96033.78;6310547;28;20397;-63
2022/03/27 00:39:24;;;;;;;;;;;;;;;-8.67;66.38;96043.19;6315103;28;19919;-64
2022/03/27 00:42:27;;;;;;;;;;;;;;;-8.77;67.20;96036.47;6312565;28;19923;-64
2022/03/27 00:45:31;;;;;;;;;;;;;;;-8.62;67.47;96030.44;6315607;28;19920;-65
2022/03/27 00:48:37;;;;;;;;;;;;;;;-8.76;68.23;96024.56;6321204;28;19920;-64
2022/03/27 00:51:43;;;;;;;;;;;;;;;-8.73;68.41;96030.47;6319668;28;19919;-63
2022/03/27 00:54:46;;;;;;;;;;;;;;;-8.88;68.76;96033.09;6320080;28;19920;-63
2022/03/27 00:57:48;;;;;;;;;;;;;;;-8.93;69.16;96032.25;6321031;28;19924;-63
2022/03/27 01:00:55;;;;;;;;;;;;;;;-8.89;69.91;96026.28;6312859;28;20513;-63
2022/03/27 01:03:58;;;;;;;;;;;;;;;-9.09;69.93;96023.78;6319155;28;19941;-64
2022/03/27 01:07:03;;;;;;;;;;;;;;;-9.13;70.29;96027.19;6311767;28;19969;-63
2022/03/27 01:10:04;;;;;;;;;;;;;;;-9.25;70.44;96028.06;6315565;28;19927;-64
2022/03/27 01:13:09;;;;;;;;;;;;;;;-9.27;70.66;96017.88;6314221;28;19969;-63
2022/03/27 01:16:15;;;;;;;;;;;;;;;-9.39;70.94;96014.50;6317449;28;20385;-64
2022/03/27 01:19:16;;;;;;;;;;;;;;;-9.33;70.93;96019.59;6314076;28;20026;-65
2022/03/27 01:22:18;;;;;;;;;;;;;;;-9.36;71.08;96019.59;6309928;28;19936;-63
2022/03/27 01:25:22;;;;;;;;;;;;;;;-9.47;71.52;96018.75;6316639;28;20442;-63
2022/03/27 01:28:25;;;;;;;;;;;;;;;-9.49;71.54;96009.41;6312506;28;19919;-63
2022/03/27 01:31:27;;;;;;;;;;;;;;;-9.65;72.02;96006.84;6318268;28;19931;-64
2022/03/27 01:34:30;;;;;;;;;;;;;;;-9.53;72.59;96002.63;6316582;28;19931;-63
2022/03/27 01:37:34;;;;;;;;;;;;;;;-9.57;72.60;96011.09;6319284;28;20061;-64
2022/03/27 01:40:37;;;;;;;;;;;;;;;-9.57;72.72;96000.06;6312382;28;20312;-63
2022/03/27 01:43:41;;;;;;;;;;;;;;;-9.61;72.73;96009.41;6316435;28;20373;-64
2022/03/27 01:46:43;;;;;;;;;;;;;;;-9.68;72.76;96015.38;6316685;28;20026;-62
2022/03/27 01:49:50;;;;;;;;;;;;;;;-9.60;73.00;96011.09;6317059;28;19920;-63
2022/03/27 01:52:53;;;;;;;;;;;;;;;-9.65;73.18;96017.91;6311832;28;19920;-63
2022/03/27 01:55:57;;;;;;;;;;;;;;;-9.57;72.77;96021.28;6295524;28;20057;-64
2022/03/27 01:58:58;;;;;;;;;;;;;;;-9.62;73.46;96017.91;6314807;28;20377;-64
2022/03/27 02:02:02;;;;;;;;;;;;;;;-9.70;73.36;96009.44;6315119;28;19946;-64
2022/03/27 02:05:04;;;;;;;;;;;;;;;-9.63;73.49;96020.44;6313033;28;19928;-64
2022/03/27 02:08:10;;;;;;;;;;;;;;;-9.65;73.16;96012.81;6316081;28;19924;-62
2022/03/27 02:11:14;;;;;;;;;;;;;;;-9.62;73.58;96007.72;6311413;28;19920;-64
2022/03/27 02:14:17;;;;;;;;;;;;;;;-9.51;73.86;95995.84;6310859;28;19927;-63
2022/03/27 02:17:21;;;;;;;;;;;;;;;-9.55;73.93;96013.66;6316974;28;19919;-63
2022/03/27 02:20:24;;;;;;;;;;;;;;;-9.51;73.63;96011.13;6306596;28;20034;-64
2022/03/27 02:23:28;;;;;;;;;;;;;;;-9.46;74.01;96010.25;6305392;28;19927;-63
2022/03/27 02:26:32;;;;;;;;;;;;;;;-9.42;73.90;96004.31;6311840;28;19920;-63
2022/03/27 02:29:33;;;;;;;;;;;;;;;-9.28;74.31;96012.78;6316137;28;19920;-63
2022/03/27 02:32:34;;;;;;;;;;;;;;;-9.12;73.88;96016.13;6317907;28;19927;-63
2022/03/27 02:35:35;;;;;;;;;;;;;;;-9.03;73.34;96021.22;6315103;28;19923;-64
2022/03/27 02:38:39;;;;;;;;;;;;;;;-9.21;72.89;96008.53;6318951;28;19920;-64
2022/03/27 02:41:40;;;;;;;;;;;;;;;-9.09;73.27;96014.44;6316105;28;20364;-63
2022/03/27 02:44:41;;;;;;;;;;;;;;;-9.01;73.19;96014.41;6309634;28;19982;-63
2022/03/27 02:47:42;;;;;;;;;;;;;;;-8.97;73.14;96017.78;6311896;28;19926;-64
2022/03/27 02:50:44;;;;;;;;;;;;;;;-8.87;72.53;96014.38;6312132;28;20384;-63
2022/03/27 02:53:45;;;;;;;;;;;;;;;-8.86;72.66;96010.97;6311477;28;19928;-64
2022/03/27 02:56:51;;;;;;;;;;;;;;;-8.70;72.30;96007.53;6313861;28;19927;-64
2022/03/27 02:59:52;;;;;;;;;;;;;;;-8.61;71.46;96021.94;6305487;28;19966;-64
2022/03/27 03:02:54;;;;;;;;;;;;;;;-8.54;71.24;96010.03;6312266;28;19927;-64
2022/03/27 03:05:55;;;;;;;;;;;;;;;-8.57;70.55;96002.38;6309354;28;19920;-63
2022/03/27 03:08:56;;;;;;;;;;;;;;;-8.25;70.40;96010.69;6316266;28;19942;-64
2022/03/27 03:11:58;;;;;;;;;;;;;;;-8.33;69.35;96009.88;6316269;28;19919;-64
2022/03/27 03:14:59;;;;;;;;;;;;;;;-8.64;69.98;96004.94;6313415;28;20573;-63
2022/03/27 03:18:00;;;;;;;;;;;;;;;-8.51;71.00;95997.25;6314821;28;20274;-63
2022/03/27 03:21:04;;;;;;;;;;;;;;;-8.55;70.96;96000.66;6310307;28;20412;-64
2022/03/27 03:24:10;;;;;;;;;;;;;;;-8.25;71.50;96010.69;6305551;28;20393;-63
2022/03/27 03:27:12;;;;;;;;;;;;;;;-8.05;70.65;96009.72;6312347;28;19924;-62
2022/03/27 03:30:13;;;;;;;;;;;;;;;-7.77;69.98;96008.66;6315819;28;20282;-63
2022/03/27 03:33:14;;;;;;;;;;;;;;;-7.69;69.29;96006.91;6314208;28;19920;-62
2022/03/27 03:36:15;;;;;;;;;;;;;;;-7.64;67.96;96008.56;6315763;28;20364;-64
2022/03/27 03:39:19;;;;;;;;;;;;;;;-7.96;68.26;96004.53;6313132;28;19920;-63
2022/03/27 03:42:20;;;;;;;;;;;;;;;-7.73;68.46;96015.47;6309931;28;20396;-63
2022/03/27 03:45:27;;;;;;;;;;;;;;;-7.85;68.38;96009.59;6311369;28;19919;-64
2022/03/27 03:48:28;;;;;;;;;;;;;;;-7.62;68.40;96017.06;6315501;28;20014;-63
2022/03/27 03:51:29;;;;;;;;;;;;;;;-7.54;67.77;96016.16;6315732;28;19931;-64
2022/03/27 03:54:30;;;;;;;;;;;;;;;-7.66;67.57;96016.25;6313411;28;19924;-64
2022/03/27 03:57:33;;;;;;;;;;;;;;;-7.66;67.77;96026.47;6315177;28;20324;-64
2022/03/27 04:00:36;;;;;;;;;;;;;;;-7.51;68.63;96020.38;6314748;28;19965;-63
2022/03/27 04:03:37;;;;;;;;;;;;;;;-7.14;67.05;96007.28;6314123;28;19924;-65
2022/03/27 04:06:38;;;;;;;;;;;;;;;-7.13;66.38;96006.41;6308305;28;19966;-64
2022/03/27 04:09:41;;;;;;;;;;;;;;;-7.36;66.28;96020.28;6310366;28;19927;-64
2022/03/27 04:12:47;;;;;;;;;;;;;;;-7.16;66.88;96021.78;6313321;28;19920;-63
2022/03/27 04:15:48;;;;;;;;;;;;;;;-7.18;67.25;96018.41;6310404;28;20415;-64
2022/03/27 04:18:49;;;;;;;;;;;;;;;-7.02;66.82;96014.81;6314957;28;19977;-63
2022/03/27 04:21:50;;;;;;;;;;;;;;;-6.92;65.81;96021.53;6310640;28;20022;-64
2022/03/27 04:24:51;;;;;;;;;;;;;;;-6.84;66.58;96018.91;6303676;28;19919;-63
2022/03/27 04:27:55;;;;;;;;;;;;;;;-6.74;65.77;96006.88;6313017;28;19924;-63
2022/03/27 04:30:57;;;;;;;;;;;;;;;-6.65;65.22;95999.06;6307229;28;21034;-63
2022/03/27 04:33:58;;;;;;;;;;;;;;;-6.67;65.50;95995.72;6310202;28;19920;-63
2022/03/27 04:37:04;;;;;;;;;;;;;;;-6.37;64.84;96008.13;6311448;28;19916;-63
2022/03/27 04:40:05;;;;;;;;;;;;;;;-6.55;64.36;95991.28;6312955;28;19939;-64
2022/03/27 04:43:06;;;;;;;;;;;;;;;-6.65;64.59;96005.06;6314905;28;20060;-64
2022/03/27 04:46:10;;;;;;;;;;;;;;;-6.74;65.17;96004.31;6315952;28;19926;-64
2022/03/27 04:49:14;;;;;;;;;;;;;;;-6.64;65.05;96011.03;6313685;28;19920;-64
2022/03/27 04:52:15;;;;;;;;;;;;;;;-6.44;64.64;96001.38;6313879;28;19926;-65
2022/03/27 04:55:16;;;;;;;;;;;;;;;-6.32;64.26;95998.66;6312334;28;19916;-64
2022/03/27 04:58:17;;;;;;;;;;;;;;;-5.95;63.67;95999.88;6316994;28;20018;-63
2022/03/27 05:01:18;;;;;;;;;;;;;;;-6.08;63.22;96006.91;6314828;28;19947;-64
2022/03/27 05:04:20;;;;;;;;;;;;;;;-5.94;64.00;95997.31;6313542;28;19978;-63
2022/03/27 05:07:23;;;;;;;;;;;;;;;-5.71;63.21;96001.22;6314412;28;19920;-63
2022/03/27 05:10:24;;;;;;;;;;;;;;;-5.63;62.30;95999.38;6313783;28;19920;-63
2022/03/27 05:13:28;;;;;;;;;;;;;;;-5.46;61.53;96002.53;6315062;28;19966;-64
2022/03/27 05:16:31;;;;;;;;;;;;;;;-5.37;61.85;95995.56;6314096;28;19919;-63
2022/03/27 05:19:35;;;;;;;;;;;;;;;-5.23;60.62;95994.44;6313574;28;19943;-65
2022/03/27 05:22:36;;;;;;;;;;;;;;;-5.12;60.39;95986.56;6313050;28;19920;-64
2022/03/27 05:25:41;;;;;;;;;;;;;;;-5.06;60.43;95986.44;6314622;28;19928;-64
2022/03/27 05:28:42;;;;;;;;;;;;;;;-5.23;61.32;95984.19;6312348;28;19923;-64
2022/03/27 05:31:45;;;;;;;;;;;;;;;-5.30;61.78;95986.88;6316684;28;19920;-64
2022/03/27 05:34:48;;;;;;;;;;;;;;;-5.09;61.54;95975.41;6319111;28;19930;-64
2022/03/27 05:37:54;;;;;;;;;;;;;;;-5.06;61.60;95981.31;6319111;28;19924;-63
2022/03/27 05:40:58;;;;;;;;;;;;;;;-4.88;60.74;95984.41;6308298;28;19919;-64
2022/03/27 05:43:59;;;;;;;;;;;;;;;-4.94;60.10;95987.09;6311785;28;20050;-63
2022/03/27 05:47:03;;;;;;;;;;;;;;;-4.92;60.18;95983.63;6317732;28;19924;-64
2022/03/27 05:50:05;;;;;;;;;;;;;;;-4.57;59.16;95977.81;6320248;28;19919;-64
2022/03/27 05:53:09;;;;;;;;;;;;;;;-4.42;58.25;95975.81;6317873;28;20312;-63
2022/03/27 05:56:12;;;;;;;;;;;;;;;-4.33;58.64;95973.03;6314751;28;19998;-64
2022/03/27 05:59:16;;;;;;;;;;;;;;;-4.07;58.19;95970.78;6315181;28;19920;-63
2022/03/27 06:02:21;;;;;;;;;;;;;;;-4.04;57.72;95974.16;6305104;28;20300;-64
2022/03/27 06:05:25;;;;;;;;;;;;;;;-3.81;56.90;95964.19;6305995;28;19927;-64
2022/03/27 06:08:29;;;;;;;;;;;;;;;-3.69;56.79;95971.63;6309810;28;20250;-65
2022/03/27 06:11:30;;;;;;;;;;;;;;;-3.57;56.33;95970.47;6299553;28;19927;-64
2022/03/27 06:14:31;;;;;;;;;;;;;;;-3.59;55.71;95971.38;6299770;28;20012;-64
2022/03/27 06:17:44;;;;;;;;;;;;;;;-3.92;57.36;95969.56;6304084;28;19923;-65
2022/03/27 06:20:45;;;;;;;;;;;;;;;-3.69;56.94;95965.63;6306632;28;19938;-64
2022/03/27 06:23:46;;;;;;;;;;;;;;;-3.62;56.96;95962.06;6304415;28;19920;-65
2022/03/27 06:26:50;;;;;;;;;;;;;;;-3.47;56.45;95958.25;6306387;28;19924;-65
2022/03/27 06:29:53;;;;;;;;;;;;;;;-2.99;55.31;95963.03;6304505;28;19920;-65
2022/03/27 06:32:56;;;;;;;;;;;;;;;-2.98;55.43;95965.56;6304069;28;20019;-64
2022/03/27 06:35:58;;;;;;;;;;;;;;;-2.92;55.75;95971.44;6304937;28;19956;-65
2022/03/27 06:38:59;;;;;;;;;;;;;;;-2.66;54.50;95963.00;6304475;28;19924;-64
2022/03/27 06:42:02;;;;;;;;;;;;;;;-2.70;54.54;95959.69;6307776;28;19920;-65
2022/03/27 06:45:04;;;;;;;;;;;;;;;-2.17;54.17;95948.75;6304174;28;19961;-64
2022/03/27 06:48:05;;;;;;;;;;;;;;;-1.91;52.82;95951.38;6305307;28;20325;-65
2022/03/27 06:51:11;;;;;;;;;;;;;;;-2.06;52.55;95954.44;6301527;28;19924;-65
2022/03/27 06:54:14;;;;;;;;;;;;;;;-2.29;53.69;95948.22;6304693;28;19920;-64
2022/03/27 06:57:15;;;;;;;;;;;;;;;-2.27;53.93;95949.00;6301624;28;20045;-65
2022/03/27 07:03:42;;;;;;;;;;;;;;;-1.44;52.26;95936.13;6304531;28;19924;-65
2022/03/27 07:06:46;;;;;;;;;;;;;;;-1.21;51.29;95931.97;6305164;28;19920;-65
2022/03/27 07:09:49;;;;;;;;;;;;;;;-1.09;51.17;95928.94;6304413;28;19924;-64
2022/03/27 07:12:53;;;;;;;;;;;;;;;-0.99;51.31;95943.25;6302229;28;20057;-65
2022/03/27 07:15:56;;;;;;;;;;;;;;;-0.84;50.90;95931.53;6299409;28;19925;-64
2022/03/27 07:18:58;;;;;;;;;;;;;;;-0.44;49.73;95937.00;6303941;28;19920;-65
2022/03/27 07:21:59;;;;;;;;;;;;;;;-0.17;48.88;95927.38;6304001;28;19935;-64
2022/03/27 07:25:03;;;;;;;;;;;;;;;0.05;48.98;95919.66;6303200;28;19920;-65
2022/03/27 07:28:05;;;;;;;;;;;;;;;0.98;46.88;95927.97;6293682;28;20388;-63
2022/03/27 07:31:11;;;;;;;;;;;;;;;1.03;46.90;95918.28;6299189;28;19943;-66
2022/03/27 07:34:17;;;;;;;;;;;;;;;1.71;44.98;95919.59;6303440;28;20277;-65
2022/03/27 07:37:23;;;;;;;;;;;;;;;1.90;43.61;95904.03;6304304;28;20391;-64
2022/03/27 07:40:24;;;;;;;;;;;;;;;1.37;45.04;95890.91;6302568;28;19968;-65
2022/03/27 07:43:25;;;;;;;;;;;;;;;1.42;45.16;95904.50;6302524;28;20483;-65
2022/03/27 07:46:31;;;;;;;;;;;;;;;2.00;44.28;95896.66;6289433;28;19924;-65
2022/03/27 07:49:32;;;;;;;;;;;;;;;1.80;44.18;95893.22;6297904;28;19931;-64
2022/03/27 07:52:36;;;;;;;;;;;;;;;2.10;43.87;95915.25;6292726;28;19928;-64
2022/03/27 07:55:40;;;;;;;;;;;;;;;1.76;43.86;95909.00;6304761;28;19920;-64
2022/03/27 07:58:46;;;;;;;;;;;;;;;1.33;45.01;95911.78;6300280;28;19919;-64
2022/03/27 08:01:48;;;;;;;;;;;;;;;1.27;44.88;95906.84;6299767;28;19923;-64
2022/03/27 08:04:49;;;;;;;;;;;;;;;0.81;45.32;95918.31;6303689;28;19920;-64
2022/03/27 08:07:50;;;;;;;;;;;;;;;0.29;47.17;95915.28;6302529;28;20130;-64
2022/03/27 08:10:55;;;;;;;;;;;;;;;-0.12;48.50;95921.13;6303023;28;20413;-64
2022/03/27 08:13:58;;;;;;;;;;;;;;;-0.11;48.86;95912.50;6298572;28;19920;-64
2022/03/27 08:16:59;;;;;;;;;;;;;;;0.25;49.04;95904.19;6303997;28;20381;-64
2022/03/27 08:20:04;;;;;;;;;;;;;;;0.49;47.65;95898.94;6302696;28;19924;-65
2022/03/27 08:23:06;;;;;;;;;;;;;;;0.52;47.79;95891.06;6300902;28;19970;-65
2022/03/27 08:29:29;;;;;;;;;;;;;;;1.03;47.46;95887.19;6298475;28;20385;-64
2022/03/27 08:32:30;;;;;;;;;;;;;;;1.69;45.76;95890.28;6301169;28;19923;-64
2022/03/27 08:35:33;;;;;;;;;;;;;;;2.86;44.32;95898.56;6308940;28;20339;-63
2022/03/27 08:38:34;;;;;;;;;;;;;;;4.42;40.86;95899.00;6307262;28;19920;-64
2022/03/27 08:41:36;;;;;;;;;;;;;;;4.43;38.79;95893.69;6302393;28;19961;-65
2022/03/27 08:44:39;;;;;;;;;;;;;;;2.95;42.22;95902.44;6303918;28;19924;-64
2022/03/27 08:47:43;;;;;;;;;;;;;;;2.23;44.67;95903.34;6302431;28;19920;-65
2022/03/27 08:50:49;;;;;;;;;;;;;;;2.20;44.03;95893.13;6305460;28;20411;-65
2022/03/27 08:53:51;;;;;;;;;;;;;;;2.30;43.77;95898.72;6302401;28;19943;-64
2022/03/27 08:57:06;;;;;;;;;;;;;;;1.97;44.80;95891.59;6306431;28;20600;-64
2022/03/27 09:00:07;;;;;;;;;;;;;;;2.06;44.63;95898.97;6297760;28;19927;-64
2022/03/27 09:03:08;;;;;;;;;;;;;;;2.13;44.11;95902.13;6302310;28;20385;-64
2022/03/27 09:06:09;;;;;;;;;;;;;;;1.58;44.73;95895.09;6307113;28;19920;-63
2022/03/27 09:09:12;;;;;;;;;;;;;;;1.35;45.66;95884.00;6307133;28;19928;-62
2022/03/27 09:12:18;;;;;;;;;;;;;;;1.01;46.95;95887.25;6310291;28;20020;-64
2022/03/27 09:15:23;;;;;;;;;;;;;;;0.89;47.96;95895.53;6312112;28;19920;-69
2022/03/27 09:18:41;;;;;;;;;;;;;;;0.73;48.09;95878.97;6310397;28;19924;-69
2022/03/27 09:21:50;;;;;;;;;;;;;;;0.49;49.19;95891.19;6310182;28;19920;-68
2022/03/27 09:25:04;;;;;;;;;;;;;;;0.40;49.86;95877.72;6302830;28;19920;-70
2022/03/27 09:28:05;;;;;;;;;;;;;;;0.37;50.13;95871.81;6305935;28;20507;-69
2022/03/27 09:31:06;;;;;;;;;;;;;;;0.51;50.85;95871.22;6302476;28;20004;-70
2022/03/27 09:34:10;;;;;;;;;;;;;;;0.70;50.49;95864.38;6307469;28;19931;-62
2022/03/27 09:37:33;;;;;;;;;;;;;;;0.79;50.22;95853.66;6309737;28;19919;-62
2022/03/27 09:40:37;;;;;;;;;;;;;;;0.78;50.37;95862.31;6309158;28;19926;-62
2022/03/27 09:43:57;;;;;;;;;;;;;;;0.77;50.55;95860.66;6306050;28;19924;-61
2022/03/27 09:47:07;;;;;;;;;;;;;;;1.49;50.10;95861.81;6307330;28;19920;-61
2022/03/27 09:50:27;;;;;;;;;;;;;;;2.99;46.80;95857.19;6301185;28;19924;-62
2022/03/27 09:53:29;;;;;;;;;;;;;;;4.71;41.54;95842.63;6301892;28;19921;-61
2022/03/27 09:56:30;;;;;;;;;;;;;;;5.23;40.92;95844.75;6314094;28;19959;-61
2022/03/27 09:59:33;;;;;;;;;;;;;;;5.80;39.51;95838.66;6312312;28;19927;-61
2022/03/27 10:02:36;;;;;;;;;;;;;;;5.91;38.93;95831.00;6307611;28;20010;-62
2022/03/27 10:05:41;;;;;;;;;;;;;;;6.10;38.97;95843.78;6308622;28;19927;-61
2022/03/27 10:08:42;;;;;;;;;;;;;;;7.20;37.04;95833.06;6313084;28;19919;-61
2022/03/27 10:11:47;;;;;;;;;;;;;;;8.00;34.95;95833.59;6308064;28;19920;-61
2022/03/27 10:14:54;;;;;;;;;;;;;;;7.13;35.76;95827.44;6309445;28;20056;-61
2022/03/27 10:18:20;;;;;;;;;;;;;;;5.92;37.97;95830.09;6305979;28;19919;-61
2022/03/27 10:21:23;;;;;;;;;;;;;;;5.40;39.14;95841.13;6308931;28;19924;-61
2022/03/27 10:24:27;;;;;;;;;;;;;;;4.77;40.54;95826.63;6300851;28;19925;-62
2022/03/27 10:27:30;;;;;;;;;;;;;;;4.63;41.09;95824.00;6305550;28;19928;-61
2022/03/27 10:30:32;;;;;;;;;;;;;;;4.74;41.49;95826.81;6305933;28;19921;-61
2022/03/27 10:33:35;;;;;;;;;;;;;;;5.20;40.53;95821.47;6304947;28;20413;-61
2022/03/27 10:36:42;;;;;;;;;;;;;;;5.94;39.29;95830.00;6303566;28;19916;-62
2022/03/27 10:39:55;;;;;;;;;;;;;;;6.43;38.52;95809.44;6307181;28;19926;-60
2022/03/27 10:42:59;;;;;;;;;;;;;;;6.86;37.38;95819.66;6298772;28;20862;-62
2022/03/27 10:46:13;;;;;;;;;;;;;;;6.75;37.03;95811.69;6311086;28;20061;-62
2022/03/27 10:49:16;;;;;;;;;;;;;;;5.79;38.63;95798.69;6302126;28;19920;-62
2022/03/27 10:52:17;;;;;;;;;;;;;;;5.26;39.90;95802.84;6307538;28;19920;-62
2022/03/27 10:55:18;;;;;;;;;;;;;;;4.25;42.31;95787.97;6303293;28;19924;-63
2022/03/27 10:58:30;;;;;;;;;;;;;;;2.97;45.47;95785.44;6306516;28;20393;-60
2022/03/27 11:01:39;;;;;;;;;;;;;;;2.42;47.14;95783.91;6307468;28;19927;-62
2022/03/27 11:04:44;;;;;;;;;;;;;;;2.29;48.61;95777.63;6308606;28;19924;-62
2022/03/27 11:07:45;;;;;;;;;;;;;;;2.02;49.03;95785.88;6306249;28;19945;-61
2022/03/27 11:10:50;;;;;;;;;;;;;;;1.46;50.05;95800.59;6304042;28;20249;-62
2022/03/27 11:13:53;;;;;;;;;;;;;;;1.20;51.18;95786.25;6304683;28;20298;-72
2022/03/27 11:17:05;;;;;;;;;;;;;;;1.44;51.38;95779.06;6306348;28;20396;-70
2022/03/27 11:20:30;;;;;;;;;;;;;;;1.53;51.51;95770.06;6301411;28;19945;-63
2022/03/27 11:23:36;;;;;;;;;;;;;;;1.68;51.67;95777.09;6292917;28;20058;-62
2022/03/27 11:26:37;;;;;;;;;;;;;;;1.88;51.24;95772.72;6301389;28;19931;-62
2022/03/27 11:30:01;;;;;;;;;;;;;;;2.01;50.46;95773.81;6304779;28;19920;-62
2022/03/27 11:33:14;;;;;;;;;;;;;;;2.34;49.81;95780.84;6306274;28;19920;-61
2022/03/27 11:36:18;;;;;;;;;;;;;;;2.48;49.56;95781.00;6307441;28;20314;-63
2022/03/27 11:39:27;;;;;;;;;;;;;;;1.91;50.91;95772.56;6305930;28;19920;-63
2022/03/27 11:42:32;;;;;;;;;;;;;;;1.71;52.27;95761.41;6306286;28;20173;-63
2022/03/27 11:45:37;;;;;;;;;;;;;;;1.24;52.40;95774.81;6304812;28;20408;-63
2022/03/27 11:48:40;;;;;;;;;;;;;;;1.42;53.46;95760.19;6305830;28;19919;-62
2022/03/27 11:51:46;;;;;;;;;;;;;;;1.29;53.39;95746.94;6302210;28;19925;-61
2022/03/27 11:55:01;;;;;;;;;;;;;;;1.52;52.91;95755.41;6305408;28;19920;-63
2022/03/27 11:58:10;;;;;;;;;;;;;;;0.63;54.39;95751.66;6306167;28;20405;-61
2022/03/27 12:01:14;;;;;;;;;;;;;;;0.21;56.01;95747.41;6310881;28;19932;-62
2022/03/27 12:04:18;;;;;;;;;;;;;;;0.12;56.76;95752.97;6305415;28;19920;-61
2022/03/27 12:07:23;;;;;;;;;;;;;;;-0.07;57.84;95752.88;6300711;28;20000;-62
2022/03/27 12:10:27;;;;;;;;;;;;;;;-0.23;58.39;95763.00;6303965;28;19924;-61
2022/03/27 12:13:37;;;;;;;;;;;;;;;-0.06;58.54;95760.59;6300715;28;19920;-63
2022/03/27 12:16:51;;;;;;;;;;;;;;;-0.16;58.95;95748.94;6303331;28;20014;-65
2022/03/27 12:20:08;;;;;;;;;;;;;;;-0.02;58.85;95751.78;6299555;28;19921;-63
2022/03/27 12:23:18;;;;;;;;;;;;;;;-0.19;59.29;95743.91;6303956;28;20077;-62
2022/03/27 12:29:50;;;;;;;;;;;;;;;-0.64;60.64;95737.06;6297823;28;19920;-62
2022/03/27 12:32:56;;;;;;;;;;;;;;;-0.92;61.41;95753.59;6302611;28;19920;-64
2022/03/27 12:36:03;;;;;;;;;;;;;;;-0.80;61.78;95752.28;6299373;28;19997;-67
2022/03/27 12:39:12;;;;;;;;;;;;;;;-0.83;62.25;95743.84;6308701;28;20377;-68
2022/03/27 12:42:29;;;;;;;;;;;;;;;-0.86;62.03;95746.53;6299052;28;19923;-70
2022/03/27 12:45:36;;;;;;;;;;;;;;;-1.18;63.33;95748.59;6310207;28;19920;-68
2022/03/27 12:48:37;;;;;;;;;;;;;;;-1.14;63.24;95742.41;6301339;28;20313;-69
2022/03/27 12:51:38;;;;;;;;;;;;;;;-0.94;62.65;95733.91;6317553;28;19924;-67
2022/03/27 12:55:14;;;;;;;;;;;;;;;-1.01;63.58;95728.13;6311153;28;19919;-67
2022/03/27 12:58:22;;;;;;;;;;;;;;;-1.07;63.27;95727.53;6268899;28;19916;-67
2022/03/27 13:01:30;;;;;;;;;;;;;;;-1.02;63.67;95726.47;6307468;28;19920;-66
2022/03/27 13:04:34;;;;;;;;;;;;;;;-1.17;63.95;95724.44;6301654;28;19915;-67
2022/03/27 13:07:57;;;;;;;;;;;;;;;-1.20;63.86;95719.41;6305586;28;19920;-68
2022/03/27 13:10:59;;;;;;;;;;;;;;;-1.25;64.97;95709.22;6304929;28;19947;-67
2022/03/27 13:14:01;;;;;;;;;;;;;;;-1.33;65.04;95719.03;6304346;28;19935;-64
2022/03/27 13:17:12;;;;;;;;;;;;;;;-1.47;65.76;95706.63;6310925;28;20068;-68
2022/03/27 13:20:34;;;;;;;;;;;;;;;-1.50;66.23;95714.47;6307152;28;19935;-66
2022/03/27 13:23:38;;;;;;;;;;;;;;;-1.68;67.09;95709.97;6302844;28;20576;-67
2022/03/27 13:26:44;;;;;;;;;;;;;;;-1.72;67.48;95703.25;6302782;28;20052;-66
2022/03/27 13:29:45;;;;;;;;;;;;;;;-1.71;68.13;95716.06;6306964;28;19920;-66
2022/03/27 13:32:49;;;;;;;;;;;;;;;-1.88;67.79;95714.06;6314269;28;20076;-66
2022/03/27 13:35:56;;;;;;;;;;;;;;;-2.09;68.55;95707.09;6306808;28;19920;-65
2022/03/27 13:39:00;;;;;;;;;;;;;;;-2.23;68.99;95693.81;6303598;28;19920;-67
2022/03/27 13:45:25;;;;;;;;;;;;;;;-2.23;69.54;95719.59;6307179;28;20488;-65
2022/03/27 13:48:26;;;;;;;;;;;;;;;-2.23;69.86;95714.44;6304388;28;19935;-65
2022/03/27 13:51:29;;;;;;;;;;;;;;;-2.55;70.53;95708.59;6306793;28;19981;-64
2022/03/27 13:54:31;;;;;;;;;;;;;;;-2.49;71.56;95695.53;6308651;28;20502;-62
2022/03/27 13:57:32;;;;;;;;;;;;;;;-2.63;71.76;95692.53;6309168;28;19928;-68
2022/03/27 14:00:36;;;;;;;;;;;;;;;-2.51;71.99;95687.00;6308972;28;19989;-63
2022/03/27 14:03:37;;;;;;;;;;;;;;;-2.54;71.66;95697.41;6306205;28;20324;-64
2022/03/27 14:06:39;;;;;;;;;;;;;;;-2.66;72.21;95685.78;6307177;28;19970;-63
2022/03/27 14:09:41;;;;;;;;;;;;;;;-2.67;72.24;95683.22;6311694;28;19919;-64
2022/03/27 14:12:42;;;;;;;;;;;;;;;-2.83;72.47;95686.31;6320521;28;19941;-64
2022/03/27 14:15:43;;;;;;;;;;;;;;;-2.93;73.17;95690.03;6316526;28;20297;-65
2022/03/27 14:18:47;;;;;;;;;;;;;;;-2.92;73.31;95690.88;6320546;28;20006;-65
2022/03/27 14:21:51;;;;;;;;;;;;;;;-3.09;73.53;95678.53;6311270;28;19927;-65
2022/03/27 14:24:55;;;;;;;;;;;;;;;-3.16;74.62;95683.03;6313462;28;19919;-66
2022/03/27 14:27:56;;;;;;;;;;;;;;;-3.02;74.13;95680.03;6310947;28;19927;-68
2022/03/27 14:30:57;;;;;;;;;;;;;;;-3.06;73.90;95678.44;6320785;28;19934;-66
2022/03/27 14:33:59;;;;;;;;;;;;;;;-2.94;74.30;95688.38;6318984;28;19924;-66
2022/03/27 14:37:00;;;;;;;;;;;;;;;-3.00;74.33;95684.25;6317404;28;20006;-63
2022/03/27 14:40:04;;;;;;;;;;;;;;;-3.23;74.75;95684.09;6319859;28;19927;-62
2022/03/27 14:43:05;;;;;;;;;;;;;;;-3.09;75.05;95688.81;6303654;28;19998;-63
2022/03/27 14:46:06;;;;;;;;;;;;;;;-3.06;74.86;95693.88;6309274;28;19920;-63
2022/03/27 14:49:10;;;;;;;;;;;;;;;-3.11;74.49;95676.03;6316736;28;20419;-63
2022/03/27 14:52:12;;;;;;;;;;;;;;;-3.14;75.22;95675.25;6319885;28;19920;-64
2022/03/27 14:58:38;;;;;;;;;;;;;;;-3.02;75.64;95674.88;6310659;28;19927;-63
2022/03/27 15:01:46;;;;;;;;;;;;;;;-3.11;75.29;95675.16;6313040;28;19924;-64
2022/03/27 15:04:50;;;;;;;;;;;;;;;-3.01;75.23;95669.69;6317452;28;19920;-63
2022/03/27 15:07:51;;;;;;;;;;;;;;;-3.01;75.01;95674.00;6294778;28;20390;-64
2022/03/27 15:10:56;;;;;;;;;;;;;;;-3.06;75.46;95663.81;6304927;28;19920;-63
2022/03/27 15:14:02;;;;;;;;;;;;;;;-3.03;75.11;95693.78;6305333;28;19920;-63
2022/03/27 15:17:04;;;;;;;;;;;;;;;-3.19;75.63;95678.81;6303639;28;19920;-63
2022/03/27 15:20:08;;;;;;;;;;;;;;;-3.20;76.02;95682.28;6306097;28;20008;-64
2022/03/27 15:23:09;;;;;;;;;;;;;;;-3.26;76.30;95673.88;6306294;28;19930;-65
2022/03/27 15:26:11;;;;;;;;;;;;;;;-3.35;77.04;95667.28;6300047;28;19927;-63
2022/03/27 15:29:15;;;;;;;;;;;;;;;-3.30;77.27;95700.59;6302743;28;19924;-64
2022/03/27 15:32:19;;;;;;;;;;;;;;;-3.29;77.47;95679.97;6306853;28;19924;-63
2022/03/27 15:35:24;;;;;;;;;;;;;;;-3.34;77.50;95694.72;6306899;28;19919;-64
2022/03/27 15:38:26;;;;;;;;;;;;;;;-3.29;78.32;95697.97;6307715;28;19921;-63
2022/03/27 15:41:31;;;;;;;;;;;;;;;-3.30;78.31;95698.03;6295646;28;19931;-64
2022/03/27 15:44:33;;;;;;;;;;;;;;;-3.28;78.49;95693.69;6306134;28;21147;-63
2022/03/27 15:47:36;;;;;;;;;;;;;;;-3.23;78.45;95718.41;6306178;28;20310;-63
2022/03/27 15:50:39;;;;;;;;;;;;;;;-3.23;78.72;95674.66;6308992;28;19925;-63
2022/03/27 15:53:42;;;;;;;;;;;;;;;-3.23;78.67;95672.09;6305928;28;19920;-63
2022/03/27 15:56:43;;;;;;;;;;;;;;;-3.25;78.89;95679.00;6304181;28;19924;-73
2022/03/27 15:59:47;;;;;;;;;;;;;;;-3.17;78.86;95697.63;6304100;28;20388;-64
2022/03/27 16:02:48;;;;;;;;;;;;;;;-3.18;78.84;95695.09;6296648;28;19920;-64
2022/03/27 16:05:49;;;;;;;;;;;;;;;-3.19;78.79;95668.53;6306292;28;19932;-64
2022/03/27 16:08:51;;;;;;;;;;;;;;;-3.16;78.67;95704.44;6304483;28;19920;-63
2022/03/27 16:11:54;;;;;;;;;;;;;;;-3.16;78.86;95693.31;6300137;28;19920;-63
2022/03/27 16:15:00;;;;;;;;;;;;;;;-3.20;79.01;95686.56;6303332;28;19924;-62
2022/03/27 16:18:01;;;;;;;;;;;;;;;-3.24;79.30;95708.97;6305857;28;19920;-63
2022/03/27 16:21:05;;;;;;;;;;;;;;;-3.21;79.08;95696.00;6301487;28;19924;-63